sensor_id;sensor_type;location;lat;lon;timestamp;pressure;altitude;pressure_sealevel;temperature;humidity
79242;BME280;68670;48.720;9.118;2024-01-27T00:01:43;98553.44;;;0.90;97.63
79242;BME280;68670;48.720;9.118;2024-01-27T00:04:08;98562.22;;;0.83;97.80
79242;BME280;68670;48.720;9.118;2024-01-27T00:06:36;98566.34;;;0.77;97.62
79242;BME280;68670;48.720;9.118;2024-01-27T00:09:03;98571.72;;;0.77;97.61
79242;BME280;68670;48.720;9.118;2024-01-27T00:11:30;98566.47;;;0.56;97.36
79242;BME280;68670;48.720;9.118;2024-01-27T00:13:56;98561.91;;;0.57;97.82
79242;BME280;68670;48.720;9.118;2024-01-27T00:16:21;98558.38;;;0.56;98.16
79242;BME280;68670;48.720;9.118;2024-01-27T00:18:47;98562.50;;;0.60;98.47
79242;BME280;68670;48.720;9.118;2024-01-27T00:21:12;98560.78;;;0.69;97.46
79242;BME280;68670;48.720;9.118;2024-01-27T00:23:37;98566.31;;;0.58;98.34
79242;BME280;68670;48.720;9.118;2024-01-27T00:26:03;98565.75;;;0.54;98.47
79242;BME280;68670;48.720;9.118;2024-01-27T00:28:29;98560.19;;;0.46;99.02
79242;BME280;68670;48.720;9.118;2024-01-27T00:30:54;98571.25;;;0.43;98.85
79242;BME280;68670;48.720;9.118;2024-01-27T00:33:24;98565.00;;;0.43;99.61
79242;BME280;68670;48.720;9.118;2024-01-27T00:35:49;98567.38;;;0.36;99.81
79242;BME280;68670;48.720;9.118;2024-01-27T00:38:14;98568.69;;;0.32;99.88
79242;BME280;68670;48.720;9.118;2024-01-27T00:40:40;98574.34;;;0.29;100.00
79242;BME280;68670;48.720;9.118;2024-01-27T00:43:05;98572.63;;;0.28;100.00
79242;BME280;68670;48.720;9.118;2024-01-27T00:45:30;98571.22;;;0.33;100.00
79242;BME280;68670;48.720;9.118;2024-01-27T00:47:57;98572.63;;;0.28;100.00
79242;BME280;68670;48.720;9.118;2024-01-27T00:50:22;98572.38;;;0.31;100.00
79242;BME280;68670;48.720;9.118;2024-01-27T00:52:50;98574.63;;;0.26;100.00
79242;BME280;68670;48.720;9.118;2024-01-27T00:55:16;98580.81;;;0.17;100.00
79242;BME280;68670;48.720;9.118;2024-01-27T00:57:43;98579.72;;;0.29;100.00
79242;BME280;68670;48.720;9.118;2024-01-27T01:00:10;98578.13;;;0.17;100.00
79242;BME280;68670;48.720;9.118;2024-01-27T01:02:36;98578.56;;;0.22;100.00
79242;BME280;68670;48.720;9.118;2024-01-27T01:05:02;98578.72;;;0.20;100.00
79242;BME280;68670;48.720;9.118;2024-01-27T01:07:31;98586.78;;;0.20;100.00
79242;BME280;68670;48.720;9.118;2024-01-27T01:09:56;98581.09;;;0.14;100.00
79242;BME280;68670;48.720;9.118;2024-01-27T01:12:22;98585.75;;;0.12;100.00
79242;BME280;68670;48.720;9.118;2024-01-27T01:14:50;98586.44;;;0.04;100.00
79242;BME280;68670;48.720;9.118;2024-01-27T01:17:18;98587.81;;;-0.11;99.90
79242;BME280;68670;48.720;9.118;2024-01-27T01:19:43;98596.72;;;-0.11;100.00
79242;BME280;68670;48.720;9.118;2024-01-27T01:22:09;98600.59;;;-0.04;100.00
79242;BME280;68670;48.720;9.118;2024-01-27T01:24:34;98600.59;;;-0.04;99.59
79242;BME280;68670;48.720;9.118;2024-01-27T01:27:02;98596.59;;;-0.09;99.57
79242;BME280;68670;48.720;9.118;2024-01-27T01:29:33;98603.44;;;-0.26;100.00
79242;BME280;68670;48.720;9.118;2024-01-27T01:32:00;98605.50;;;-0.39;100.00
79242;BME280;68670;48.720;9.118;2024-01-27T01:34:28;98595.00;;;-0.42;100.00
79242;BME280;68670;48.720;9.118;2024-01-27T01:36:56;98602.88;;;-0.50;100.00
79242;BME280;68670;48.720;9.118;2024-01-27T01:39:23;98602.50;;;-0.66;100.00
79242;BME280;68670;48.720;9.118;2024-01-27T01:41:48;98607.28;;;-0.70;100.00
79242;BME280;68670;48.720;9.118;2024-01-27T01:44:14;98603.78;;;-0.82;100.00
79242;BME280;68670;48.720;9.118;2024-01-27T01:46:39;98609.31;;;-0.62;100.00
79242;BME280;68670;48.720;9.118;2024-01-27T01:49:04;98614.13;;;-0.66;100.00
79242;BME280;68670;48.720;9.118;2024-01-27T01:51:30;98611.56;;;-0.68;100.00
79242;BME280;68670;48.720;9.118;2024-01-27T01:53:58;98619.66;;;-0.79;100.00
79242;BME280;68670;48.720;9.118;2024-01-27T01:56:24;98607.41;;;-0.72;100.00
79242;BME280;68670;48.720;9.118;2024-01-27T01:58:50;98614.03;;;-0.76;100.00
79242;BME280;68670;48.720;9.118;2024-01-27T02:01:17;98606.72;;;-0.85;100.00
79242;BME280;68670;48.720;9.118;2024-01-27T02:03:52;98619.94;;;-0.82;100.00
79242;BME280;68670;48.720;9.118;2024-01-27T02:06:17;98627.34;;;-0.74;100.00
79242;BME280;68670;48.720;9.118;2024-01-27T02:08:45;98628.00;;;-0.61;100.00
79242;BME280;68670;48.720;9.118;2024-01-27T02:11:10;98623.81;;;-0.54;100.00
79242;BME280;68670;48.720;9.118;2024-01-27T02:13:38;98626.50;;;-0.54;100.00
79242;BME280;68670;48.720;9.118;2024-01-27T02:16:04;98636.94;;;-0.60;100.00
79242;BME280;68670;48.720;9.118;2024-01-27T02:18:29;98640.84;;;-0.64;100.00
79242;BME280;68670;48.720;9.118;2024-01-27T02:20:55;98647.81;;;-0.62;100.00
79242;BME280;68670;48.720;9.118;2024-01-27T02:23:22;98638.97;;;-0.74;100.00
79242;BME280;68670;48.720;9.118;2024-01-27T02:25:50;98639.47;;;-0.80;100.00
79242;BME280;68670;48.720;9.118;2024-01-27T02:28:16;98649.38;;;-0.80;100.00
79242;BME280;68670;48.720;9.118;2024-01-27T02:30:43;98659.91;;;-0.77;100.00
79242;BME280;68670;48.720;9.118;2024-01-27T02:33:11;98654.78;;;-0.80;100.00
79242;BME280;68670;48.720;9.118;2024-01-27T02:35:39;98656.81;;;-0.73;100.00
79242;BME280;68670;48.720;9.118;2024-01-27T02:38:04;98662.47;;;-0.76;100.00
79242;BME280;68670;48.720;9.118;2024-01-27T02:40:29;98669.28;;;-0.72;100.00
79242;BME280;68670;48.720;9.118;2024-01-27T02:42:57;98664.50;;;-0.68;100.00
79242;BME280;68670;48.720;9.118;2024-01-27T02:45:22;98663.09;;;-0.62;100.00
79242;BME280;68670;48.720;9.118;2024-01-27T02:47:50;98671.00;;;-0.71;100.00
79242;BME280;68670;48.720;9.118;2024-01-27T02:50:18;98662.19;;;-0.73;100.00
79242;BME280;68670;48.720;9.118;2024-01-27T02:52:44;98665.38;;;-0.68;100.00
79242;BME280;68670;48.720;9.118;2024-01-27T02:55:11;98662.19;;;-0.73;100.00
79242;BME280;68670;48.720;9.118;2024-01-27T02:57:37;98659.91;;;-0.77;100.00
79242;BME280;68670;48.720;9.118;2024-01-27T03:00:03;98675.69;;;-0.84;100.00
79242;BME280;68670;48.720;9.118;2024-01-27T03:02:32;98671.41;;;-0.86;100.00
79242;BME280;68670;48.720;9.118;2024-01-27T03:04:57;98676.28;;;-0.80;100.00
79242;BME280;68670;48.720;9.118;2024-01-27T03:07:25;98678.38;;;-0.84;100.00
79242;BME280;68670;48.720;9.118;2024-01-27T03:09:52;98680.09;;;-0.83;100.00
79242;BME280;68670;48.720;9.118;2024-01-27T03:12:17;98679.34;;;-0.85;100.00
79242;BME280;68670;48.720;9.118;2024-01-27T03:14:45;98672.16;;;-0.95;100.00
79242;BME280;68670;48.720;9.118;2024-01-27T03:17:13;98678.47;;;-1.06;100.00
79242;BME280;68670;48.720;9.118;2024-01-27T03:19:38;98677.47;;;-1.05;100.00
79242;BME280;68670;48.720;9.118;2024-01-27T03:22:03;98668.81;;;-1.20;100.00
79242;BME280;68670;48.720;9.118;2024-01-27T03:24:29;98666.25;;;-1.21;100.00
79242;BME280;68670;48.720;9.118;2024-01-27T03:26:56;98673.72;;;-1.14;100.00
79242;BME280;68670;48.720;9.118;2024-01-27T03:29:22;98686.84;;;-1.31;100.00
79242;BME280;68670;48.720;9.118;2024-01-27T03:31:49;98682.44;;;-1.32;100.00
79242;BME280;68670;48.720;9.118;2024-01-27T03:34:15;98694.41;;;-1.37;100.00
79242;BME280;68670;48.720;9.118;2024-01-27T03:36:40;98705.16;;;-1.37;100.00
79242;BME280;68670;48.720;9.118;2024-01-27T03:39:10;98706.38;;;-1.41;100.00
79242;BME280;68670;48.720;9.118;2024-01-27T03:41:35;98705.41;;;-1.40;100.00
79242;BME280;68670;48.720;9.118;2024-01-27T03:44:00;98712.00;;;-1.32;100.00
79242;BME280;68670;48.720;9.118;2024-01-27T03:46:28;98712.94;;;-1.22;100.00
79242;BME280;68670;48.720;9.118;2024-01-27T03:48:53;98712.56;;;-1.18;100.00
79242;BME280;68670;48.720;9.118;2024-01-27T03:51:18;98719.78;;;-1.18;100.00
79242;BME280;68670;48.720;9.118;2024-01-27T03:53:44;98715.13;;;-1.16;100.00
79242;BME280;68670;48.720;9.118;2024-01-27T03:56:13;98716.97;;;-1.17;100.00
79242;BME280;68670;48.720;9.118;2024-01-27T03:58:41;98714.16;;;-1.26;100.00
79242;BME280;68670;48.720;9.118;2024-01-27T04:01:06;98715.03;;;-1.26;100.00
79242;BME280;68670;48.720;9.118;2024-01-27T04:03:32;98725.91;;;-1.27;100.00
79242;BME280;68670;48.720;9.118;2024-01-27T04:05:57;98720.53;;;-1.27;100.00
79242;BME280;68670;48.720;9.118;2024-01-27T04:08:22;98720.78;;;-1.30;100.00
79242;BME280;68670;48.720;9.118;2024-01-27T04:10:50;98719.31;;;-1.34;100.00
79242;BME280;68670;48.720;9.118;2024-01-27T04:13:15;98722.22;;;-1.26;100.00
79242;BME280;68670;48.720;9.118;2024-01-27T04:15:43;98719.41;;;-1.25;100.00
79242;BME280;68670;48.720;9.118;2024-01-27T04:18:08;98716.34;;;-1.20;100.00
79242;BME280;68670;48.720;9.118;2024-01-27T04:20:34;98709.66;;;-1.26;100.00
79242;BME280;68670;48.720;9.118;2024-01-27T04:23:00;98709.75;;;-1.27;100.00
79242;BME280;68670;48.720;9.118;2024-01-27T04:25:26;98718.56;;;-1.25;100.00
79242;BME280;68670;48.720;9.118;2024-01-27T04:27:51;98726.25;;;-1.21;100.00
79242;BME280;68670;48.720;9.118;2024-01-27T04:30:16;98719.41;;;-1.25;100.00
79242;BME280;68670;48.720;9.118;2024-01-27T04:32:44;98733.22;;;-1.29;100.00
79242;BME280;68670;48.720;9.118;2024-01-27T04:35:14;98731.03;;;-1.24;100.00
79242;BME280;68670;48.720;9.118;2024-01-27T04:37:39;98724.78;;;-1.25;100.00
79242;BME280;68670;48.720;9.118;2024-01-27T04:40:09;98729.94;;;-1.22;100.00
79242;BME280;68670;48.720;9.118;2024-01-27T04:42:37;98727.84;;;-1.18;100.00
79242;BME280;68670;48.720;9.118;2024-01-27T04:45:05;98731.63;;;-1.21;100.00
79242;BME280;68670;48.720;9.118;2024-01-27T04:47:31;98726.75;;;-1.27;100.00
79242;BME280;68670;48.720;9.118;2024-01-27T04:49:56;98723.44;;;-1.19;100.00
79242;BME280;68670;48.720;9.118;2024-01-27T04:52:22;98727.13;;;-1.20;100.00
79242;BME280;68670;48.720;9.118;2024-01-27T04:54:48;98728.34;;;-1.13;100.00
79242;BME280;68670;48.720;9.118;2024-01-27T04:57:13;98727.47;;;-1.14;100.00
79242;BME280;68670;48.720;9.118;2024-01-27T04:59:38;98721.97;;;-1.12;100.00
79242;BME280;68670;48.720;9.118;2024-01-27T05:02:04;98722.22;;;-1.04;100.00
79242;BME280;68670;48.720;9.118;2024-01-27T05:04:29;98717.44;;;-1.00;100.00
79242;BME280;68670;48.720;9.118;2024-01-27T05:06:54;98732.22;;;-1.06;100.00
79242;BME280;68670;48.720;9.118;2024-01-27T05:09:20;98729.41;;;-1.05;100.00
79242;BME280;68670;48.720;9.118;2024-01-27T05:11:45;98737.63;;;-1.06;100.00
79242;BME280;68670;48.720;9.118;2024-01-27T05:14:11;98723.56;;;-1.10;100.00
79242;BME280;68670;48.720;9.118;2024-01-27T05:16:36;98728.34;;;-1.13;100.00
79242;BME280;68670;48.720;9.118;2024-01-27T05:19:02;98731.50;;;-1.19;100.00
79242;BME280;68670;48.720;9.118;2024-01-27T05:21:27;98733.72;;;-1.24;100.00
79242;BME280;68670;48.720;9.118;2024-01-27T05:23:52;98736.41;;;-1.24;100.00
79242;BME280;68670;48.720;9.118;2024-01-27T05:26:18;98739.34;;;-1.27;100.00
79242;BME280;68670;48.720;9.118;2024-01-27T05:28:43;98733.97;;;-1.27;100.00
79242;BME280;68670;48.720;9.118;2024-01-27T05:31:11;98727.88;;;-1.41;100.00
79242;BME280;68670;48.720;9.118;2024-01-27T05:33:37;98734.09;;;-1.51;100.00
79242;BME280;68670;48.720;9.118;2024-01-27T05:36:04;98723.34;;;-1.51;100.00
79242;BME280;68670;48.720;9.118;2024-01-27T05:38:32;98725.69;;;-1.47;100.00
79242;BME280;68670;48.720;9.118;2024-01-27T05:41:01;98727.63;;;-1.49;100.00
79242;BME280;68670;48.720;9.118;2024-01-27T05:43:29;98722.75;;;-1.44;100.00
79242;BME280;68670;48.720;9.118;2024-01-27T05:45:57;98719.06;;;-1.54;100.00
79242;BME280;68670;48.720;9.118;2024-01-27T05:48:27;98714.56;;;-1.53;100.00
79242;BME280;68670;48.720;9.118;2024-01-27T05:50:59;98719.94;;;-1.53;100.00
79242;BME280;68670;48.720;9.118;2024-01-27T05:53:25;98729.34;;;-1.70;100.00
79242;BME280;68670;48.720;9.118;2024-01-27T05:55:53;98731.78;;;-1.78;100.00
79242;BME280;68670;48.720;9.118;2024-01-27T05:58:21;98744.22;;;-1.77;100.00
79242;BME280;68670;48.720;9.118;2024-01-27T06:00:49;98739.34;;;-1.83;100.00
79242;BME280;68670;48.720;9.118;2024-01-27T06:03:15;98737.25;;;-1.91;100.00
79242;BME280;68670;48.720;9.118;2024-01-27T06:05:42;98743.25;;;-1.87;100.00
79242;BME280;68670;48.720;9.118;2024-01-27T06:08:10;98741.78;;;-1.80;100.00
79242;BME280;68670;48.720;9.118;2024-01-27T06:10:38;98746.19;;;-1.79;100.00
79242;BME280;68670;48.720;9.118;2024-01-27T06:13:06;98747.50;;;-1.85;100.00
79242;BME280;68670;48.720;9.118;2024-01-27T06:15:33;98736.16;;;-1.88;100.00
79242;BME280;68670;48.720;9.118;2024-01-27T06:18:03;98739.09;;;-1.80;100.00
79242;BME280;68670;48.720;9.118;2024-01-27T06:20:28;98742.38;;;-1.88;100.00
79242;BME280;68670;48.720;9.118;2024-01-27T06:22:54;98747.00;;;-1.90;100.00
79242;BME280;68670;48.720;9.118;2024-01-27T06:25:20;98753.25;;;-1.89;100.00
79242;BME280;68670;48.720;9.118;2024-01-27T06:27:48;98761.41;;;-1.91;100.00
79242;BME280;68670;48.720;9.118;2024-01-27T06:30:14;98771.41;;;-1.93;100.00
79242;BME280;68670;48.720;9.118;2024-01-27T06:32:45;98769.22;;;-1.99;100.00
79242;BME280;68670;48.720;9.118;2024-01-27T06:35:15;98763.97;;;-2.00;100.00
79242;BME280;68670;48.720;9.118;2024-01-27T06:37:43;98771.91;;;-1.99;100.00
79242;BME280;68670;48.720;9.118;2024-01-27T06:40:09;98764.72;;;-1.87;100.00
79242;BME280;68670;48.720;9.118;2024-01-27T06:42:39;98763.00;;;-1.88;100.00
79242;BME280;68670;48.720;9.118;2024-01-27T06:45:10;98768.28;;;-1.76;100.00
79242;BME280;68670;48.720;9.118;2024-01-27T06:47:38;98775.00;;;-1.81;100.00
79242;BME280;68670;48.720;9.118;2024-01-27T06:50:03;98774.50;;;-1.75;100.00
79242;BME280;68670;48.720;9.118;2024-01-27T06:52:33;98779.19;;;-1.66;100.00
79242;BME280;68670;48.720;9.118;2024-01-27T06:54:58;98768.19;;;-1.63;100.00
79242;BME280;68670;48.720;9.118;2024-01-27T06:57:24;98762.78;;;-1.85;100.00
79242;BME280;68670;48.720;9.118;2024-01-27T06:59:54;98773.28;;;-1.82;100.00
79242;BME280;68670;48.720;9.118;2024-01-27T07:02:24;98778.25;;;-1.89;100.00
79242;BME280;68670;48.720;9.118;2024-01-27T07:04:51;98777.06;;;-1.85;100.00
79242;BME280;68670;48.720;9.118;2024-01-27T07:07:22;98780.81;;;-1.87;100.00
79242;BME280;68670;48.720;9.118;2024-01-27T07:09:49;98776.44;;;-1.88;100.00
79242;BME280;68670;48.720;9.118;2024-01-27T07:12:14;98772.78;;;-1.87;100.00
79242;BME280;68670;48.720;9.118;2024-01-27T07:14:42;98779.59;;;-1.94;100.00
79242;BME280;68670;48.720;9.118;2024-01-27T07:17:07;98781.06;;;-1.90;100.00
79242;BME280;68670;48.720;9.118;2024-01-27T07:19:32;98779.25;;;-1.79;100.00
79242;BME280;68670;48.720;9.118;2024-01-27T07:22:02;98779.91;;;-1.64;100.00
79242;BME280;68670;48.720;9.118;2024-01-27T07:24:29;98774.53;;;-1.53;100.00
79242;BME280;68670;48.720;9.118;2024-01-27T07:26:54;98769.41;;;-1.56;100.00
79242;BME280;68670;48.720;9.118;2024-01-27T07:29:25;98768.19;;;-1.41;100.00
79242;BME280;68670;48.720;9.118;2024-01-27T07:31:51;98766.22;;;-1.27;100.00
79242;BME280;68670;48.720;9.118;2024-01-27T07:34:18;98764.13;;;-1.13;100.00
79242;BME280;68670;48.720;9.118;2024-01-27T07:36:46;98773.06;;;-1.23;99.49
79242;BME280;68670;48.720;9.118;2024-01-27T07:39:13;98765.59;;;-1.20;99.50
79242;BME280;68670;48.720;9.118;2024-01-27T07:41:38;98772.56;;;-1.06;98.91
79242;BME280;68670;48.720;9.118;2024-01-27T07:44:08;98777.44;;;-1.00;99.14
79242;BME280;68670;48.720;9.118;2024-01-27T07:46:35;98769.56;;;-0.81;98.11
79242;BME280;68670;48.720;9.118;2024-01-27T07:49:04;98768.78;;;-0.60;97.72
79242;BME280;68670;48.720;9.118;2024-01-27T07:51:34;98767.25;;;-0.42;96.97
79242;BME280;68670;48.720;9.118;2024-01-27T07:54:04;98770.22;;;-0.24;96.52
79242;BME280;68670;48.720;9.118;2024-01-27T07:56:32;98771.34;;;-0.27;96.21
79242;BME280;68670;48.720;9.118;2024-01-27T07:58:58;98764.53;;;-0.10;96.24
79242;BME280;68670;48.720;9.118;2024-01-27T08:01:23;98765.66;;;0.08;96.10
79242;BME280;68670;48.720;9.118;2024-01-27T08:03:51;98761.78;;;0.22;96.17
79242;BME280;68670;48.720;9.118;2024-01-27T08:06:17;98756.50;;;0.41;93.90
79242;BME280;68670;48.720;9.118;2024-01-27T08:08:47;98758.47;;;0.39;93.14
79242;BME280;68670;48.720;9.118;2024-01-27T08:11:18;98758.97;;;0.23;93.11
79242;BME280;68670;48.720;9.118;2024-01-27T08:13:43;98772.56;;;0.22;94.68
79242;BME280;68670;48.720;9.118;2024-01-27T08:16:11;98756.31;;;0.33;94.86
79242;BME280;68670;48.720;9.118;2024-01-27T08:18:39;98752.69;;;0.44;94.79
79242;BME280;68670;48.720;9.118;2024-01-27T08:21:07;98754.31;;;0.56;94.75
79242;BME280;68670;48.720;9.118;2024-01-27T08:23:32;98756.34;;;0.63;94.54
79242;BME280;68670;48.720;9.118;2024-01-27T08:25:58;98758.44;;;1.00;93.31
79242;BME280;68670;48.720;9.118;2024-01-27T08:28:24;98766.41;;;1.01;92.62
79242;BME280;68670;48.720;9.118;2024-01-27T08:30:49;98764.72;;;1.10;92.66
79242;BME280;68670;48.720;9.118;2024-01-27T08:33:14;98759.34;;;1.10;93.24
79242;BME280;68670;48.720;9.118;2024-01-27T08:35:39;98753.44;;;1.45;92.79
79242;BME280;68670;48.720;9.118;2024-01-27T08:38:05;98753.59;;;1.73;91.38
79242;BME280;68670;48.720;9.118;2024-01-27T08:40:37;98750.91;;;1.82;90.48
79242;BME280;68670;48.720;9.118;2024-01-27T08:43:02;98740.53;;;1.87;90.68
79242;BME280;68670;48.720;9.118;2024-01-27T08:45:29;98744.66;;;1.62;91.56
79242;BME280;68670;48.720;9.118;2024-01-27T08:47:57;98737.84;;;1.58;92.66
79242;BME280;68670;48.720;9.118;2024-01-27T08:50:23;98738.41;;;1.62;92.48
79242;BME280;68670;48.720;9.118;2024-01-27T08:52:48;98741.25;;;1.89;91.59
79242;BME280;68670;48.720;9.118;2024-01-27T08:55:13;98727.25;;;2.03;90.59
79242;BME280;68670;48.720;9.118;2024-01-27T08:57:41;98741.34;;;2.26;90.63
79242;BME280;68670;48.720;9.118;2024-01-27T09:00:09;98748.81;;;2.42;89.81
79242;BME280;68670;48.720;9.118;2024-01-27T09:02:38;98747.97;;;2.42;90.15
79242;BME280;68670;48.720;9.118;2024-01-27T09:05:03;98752.44;;;2.60;88.96
79242;BME280;68670;48.720;9.118;2024-01-27T09:07:29;98759.28;;;2.64;87.99
79242;BME280;68670;48.720;9.118;2024-01-27T09:09:54;98761.41;;;2.61;88.04
79242;BME280;68670;48.720;9.118;2024-01-27T09:12:24;98753.63;;;2.58;88.19
79242;BME280;68670;48.720;9.118;2024-01-27T09:14:49;98739.59;;;2.72;87.87
79242;BME280;68670;48.720;9.118;2024-01-27T09:17:19;98750.13;;;2.75;87.75
79242;BME280;68670;48.720;9.118;2024-01-27T09:19:47;98739.75;;;2.98;87.74
79242;BME280;68670;48.720;9.118;2024-01-27T09:22:12;98758.09;;;3.31;86.05
79242;BME280;68670;48.720;9.118;2024-01-27T09:24:37;98759.00;;;3.50;84.02
79242;BME280;68670;48.720;9.118;2024-01-27T09:27:05;98762.13;;;3.55;82.59
79242;BME280;68670;48.720;9.118;2024-01-27T09:29:33;98765.63;;;3.37;83.42
79242;BME280;68670;48.720;9.118;2024-01-27T09:31:58;98768.94;;;3.31;84.89
79242;BME280;68670;48.720;9.118;2024-01-27T09:34:25;98766.84;;;3.53;83.65
79242;BME280;68670;48.720;9.118;2024-01-27T09:36:52;98759.34;;;3.82;81.50
79242;BME280;68670;48.720;9.118;2024-01-27T09:39:17;98764.66;;;3.74;82.86
79242;BME280;68670;48.720;9.118;2024-01-27T09:41:50;98770.75;;;3.58;81.87
79242;BME280;68670;48.720;9.118;2024-01-27T09:44:18;98772.50;;;3.32;82.59
79242;BME280;68670;48.720;9.118;2024-01-27T09:46:47;98769.16;;;3.20;82.08
79242;BME280;68670;48.720;9.118;2024-01-27T09:49:14;98775.88;;;3.16;81.93
79242;BME280;68670;48.720;9.118;2024-01-27T09:51:41;98769.88;;;3.22;81.62
79242;BME280;68670;48.720;9.118;2024-01-27T09:54:09;98773.66;;;3.29;81.13
79242;BME280;68670;48.720;9.118;2024-01-27T09:56:39;98779.06;;;3.29;80.84
79242;BME280;68670;48.720;9.118;2024-01-27T09:59:08;98787.69;;;3.43;79.87
79242;BME280;68670;48.720;9.118;2024-01-27T10:01:39;98787.41;;;3.63;78.56
79242;BME280;68670;48.720;9.118;2024-01-27T10:04:07;98785.66;;;3.54;78.72
79242;BME280;68670;48.720;9.118;2024-01-27T10:06:33;98787.50;;;3.71;78.47
79242;BME280;68670;48.720;9.118;2024-01-27T10:09:00;98789.47;;;4.15;78.04
79242;BME280;68670;48.720;9.118;2024-01-27T10:11:26;98789.09;;;4.53;75.07
79242;BME280;68670;48.720;9.118;2024-01-27T10:13:56;98786.78;;;4.66;75.52
79242;BME280;68670;48.720;9.118;2024-01-27T10:16:25;98787.88;;;4.30;75.06
79242;BME280;68670;48.720;9.118;2024-01-27T10:19:03;98786.00;;;4.48;74.10
79242;BME280;68670;48.720;9.118;2024-01-27T10:21:31;98789.72;;;4.47;75.22
79242;BME280;68670;48.720;9.118;2024-01-27T10:24:00;98788.75;;;4.56;75.04
79242;BME280;68670;48.720;9.118;2024-01-27T10:26:25;98789.50;;;4.41;75.88
79242;BME280;68670;48.720;9.118;2024-01-27T10:28:56;98786.84;;;4.49;74.82
79242;BME280;68670;48.720;9.118;2024-01-27T10:31:40;98780.34;;;4.67;74.08
79242;BME280;68670;48.720;9.118;2024-01-27T10:34:05;98786.09;;;4.64;74.26
79242;BME280;68670;48.720;9.118;2024-01-27T10:36:42;98786.53;;;4.52;73.73
79242;BME280;68670;48.720;9.118;2024-01-27T10:39:18;98787.25;;;4.88;72.53
79242;BME280;68670;48.720;9.118;2024-01-27T10:41:46;98778.16;;;4.97;75.85
79242;BME280;68670;48.720;9.118;2024-01-27T10:44:16;98768.19;;;5.05;74.24
79242;BME280;68670;48.720;9.118;2024-01-27T10:46:46;98762.00;;;5.29;74.12
79242;BME280;68670;48.720;9.118;2024-01-27T10:49:18;98752.88;;;5.38;72.44
79242;BME280;68670;48.720;9.118;2024-01-27T10:51:53;98750.03;;;5.56;72.85
79242;BME280;68670;48.720;9.118;2024-01-27T10:54:24;98751.91;;;5.48;72.50
79242;BME280;68670;48.720;9.118;2024-01-27T10:56:56;98741.47;;;5.35;72.93
79242;BME280;68670;48.720;9.118;2024-01-27T10:59:22;98744.53;;;5.32;73.17
79242;BME280;68670;48.720;9.118;2024-01-27T11:01:54;98745.34;;;5.16;72.85
79242;BME280;68670;48.720;9.118;2024-01-27T11:04:20;98743.63;;;5.23;73.54
79242;BME280;68670;48.720;9.118;2024-01-27T11:06:49;98744.69;;;5.30;74.31
79242;BME280;68670;48.720;9.118;2024-01-27T11:09:15;98739.53;;;5.11;74.19
79242;BME280;68670;48.720;9.118;2024-01-27T11:11:42;98737.50;;;5.13;75.22
79242;BME280;68670;48.720;9.118;2024-01-27T11:14:13;98732.84;;;5.39;75.06
79242;BME280;68670;48.720;9.118;2024-01-27T11:16:38;98726.97;;;5.68;71.41
79242;BME280;68670;48.720;9.118;2024-01-27T11:19:12;98722.72;;;5.74;69.80
79242;BME280;68670;48.720;9.118;2024-01-27T11:21:38;98715.59;;;5.81;70.02
79242;BME280;68670;48.720;9.118;2024-01-27T11:24:15;98723.44;;;5.84;71.22
79242;BME280;68670;48.720;9.118;2024-01-27T11:26:41;98713.25;;;6.02;68.91
79242;BME280;68670;48.720;9.118;2024-01-27T11:29:07;98720.75;;;6.17;68.00
79242;BME280;68670;48.720;9.118;2024-01-27T11:31:35;98712.75;;;6.15;68.17
79242;BME280;68670;48.720;9.118;2024-01-27T11:34:00;98711.53;;;6.18;68.68
79242;BME280;68670;48.720;9.118;2024-01-27T11:36:26;98715.97;;;6.27;69.24
79242;BME280;68670;48.720;9.118;2024-01-27T11:38:54;98708.63;;;6.52;67.36
79242;BME280;68670;48.720;9.118;2024-01-27T11:41:30;98716.25;;;6.72;67.72
79242;BME280;68670;48.720;9.118;2024-01-27T11:43:57;98710.81;;;6.72;68.32
79242;BME280;68670;48.720;9.118;2024-01-27T11:46:25;98714.78;;;6.46;67.47
79242;BME280;68670;48.720;9.118;2024-01-27T11:48:50;98708.34;;;6.06;67.29
79242;BME280;68670;48.720;9.118;2024-01-27T11:51:17;98706.81;;;6.12;69.19
79242;BME280;68670;48.720;9.118;2024-01-27T11:53:43;98720.41;;;5.95;70.69
79242;BME280;68670;48.720;9.118;2024-01-27T11:56:10;98719.50;;;5.70;72.18
79242;BME280;68670;48.720;9.118;2024-01-27T11:58:35;98722.06;;;5.80;70.78
79242;BME280;68670;48.720;9.118;2024-01-27T12:01:03;98711.56;;;6.01;69.24
79242;BME280;68670;48.720;9.118;2024-01-27T12:03:29;98716.16;;;6.17;70.04
79242;BME280;68670;48.720;9.118;2024-01-27T12:05:57;98717.34;;;5.98;69.59
79242;BME280;68670;48.720;9.118;2024-01-27T12:08:22;98711.22;;;6.04;70.06
79242;BME280;68670;48.720;9.118;2024-01-27T12:10:51;98705.25;;;5.93;67.52
79242;BME280;68670;48.720;9.118;2024-01-27T12:13:17;98704.03;;;5.87;67.73
79242;BME280;68670;48.720;9.118;2024-01-27T12:15:47;98690.81;;;5.92;68.39
79242;BME280;68670;48.720;9.118;2024-01-27T12:18:14;98695.75;;;6.05;69.16
79242;BME280;68670;48.720;9.118;2024-01-27T12:20:40;98695.56;;;5.98;68.29
79242;BME280;68670;48.720;9.118;2024-01-27T12:23:06;98690.50;;;6.12;67.48
79242;BME280;68670;48.720;9.118;2024-01-27T12:25:36;98684.50;;;6.32;67.14
79242;BME280;68670;48.720;9.118;2024-01-27T12:28:08;98676.34;;;6.40;66.00
79242;BME280;68670;48.720;9.118;2024-01-27T12:30:37;98674.06;;;6.60;65.44
79242;BME280;68670;48.720;9.118;2024-01-27T12:33:12;98670.97;;;6.71;65.74
79242;BME280;68670;48.720;9.118;2024-01-27T12:35:38;98672.25;;;6.92;65.09
79242;BME280;68670;48.720;9.118;2024-01-27T12:38:07;98667.09;;;7.05;64.62
79242;BME280;68670;48.720;9.118;2024-01-27T12:40:35;98655.56;;;7.26;64.51
79242;BME280;68670;48.720;9.118;2024-01-27T12:43:02;98661.19;;;7.24;62.86
79242;BME280;68670;48.720;9.118;2024-01-27T12:45:31;98645.47;;;7.34;64.04
79242;BME280;68670;48.720;9.118;2024-01-27T12:48:00;98639.66;;;7.37;63.54
79242;BME280;68670;48.720;9.118;2024-01-27T12:50:25;98637.97;;;7.36;63.80
79242;BME280;68670;48.720;9.118;2024-01-27T12:52:50;98641.88;;;7.11;65.24
79242;BME280;68670;48.720;9.118;2024-01-27T12:55:16;98647.75;;;6.92;65.10
79242;BME280;68670;48.720;9.118;2024-01-27T12:57:43;98648.38;;;7.02;63.41
79242;BME280;68670;48.720;9.118;2024-01-27T13:00:15;98652.25;;;6.77;63.43